Time;durP1;ratioP1;P1;durP2;ratioP2;P2;SDS_P1;SDS_P2;PMS_P1;PMS_P2;Temp;Humidity;BMP_temperature;BMP_pressure;BME280_temperature;BME280_humidity;BME280_pressure;Samples;Min_cycle;Max_cycle;Signal;HPM_P1;HPM_P2
2023/04/20 04:01:18;;;;;;;20.05;10.30;;;;;;;6.36;100.00;100333.31;6084583;28;20155;-87
2023/04/20 04:04:21;;;;;;;17.02;10.07;;;;;;;6.47;100.00;100329.56;5296867;33;34042;-89
2023/04/20 04:07:25;;;;;;;20.20;9.73;;;;;;;6.54;100.00;100338.66;5284960;33;34080;-89
2023/04/20 04:10:28;;;;;;;16.60;9.35;;;;;;;6.63;100.00;100333.38;5296741;33;33827;-87
2023/04/20 04:13:31;;;;;;;18.10;9.77;;;;;;;6.69;100.00;100335.44;5309315;33;34168;-87
2023/04/20 04:16:36;;;;;;;17.75;9.85;;;;;;;6.73;100.00;100336.84;5309736;33;34295;-87
2023/04/20 04:19:39;;;;;;;15.93;9.70;;;;;;;6.82;100.00;100341.25;5282752;33;33329;-89
2023/04/20 04:22:43;;;;;;;17.30;9.88;;;;;;;6.93;100.00;100338.34;5291780;33;33898;-87
2023/04/20 04:25:48;;;;;;;19.33;10.10;;;;;;;6.98;100.00;100338.69;5282331;33;32692;-87
2023/04/20 04:28:52;;;;;;;16.20;9.30;;;;;;;7.08;100.00;100335.06;5273857;33;33462;-87
2023/04/20 04:31:57;;;;;;;19.85;9.98;;;;;;;7.12;100.00;100341.81;5279537;33;34211;-87
2023/04/20 04:35:01;;;;;;;18.52;10.07;;;;;;;7.16;100.00;100340.50;5306485;33;33685;-87
2023/04/20 04:38:03;;;;;;;15.38;9.52;;;;;;;7.26;100.00;100338.56;5283899;33;34155;-87
2023/04/20 04:41:07;;;;;;;16.23;9.32;;;;;;;7.54;100.00;100344.59;5285116;33;33255;-87
2023/04/20 04:44:10;;;;;;;20.12;10.25;;;;;;;7.71;100.00;100338.31;5284741;33;33470;-87
2023/04/20 04:47:16;;;;;;;13.20;8.93;;;;;;;7.85;100.00;100341.41;5313925;33;33863;-87
2023/04/20 04:50:20;;;;;;;15.93;9.00;;;;;;;8.06;100.00;100343.66;5301291;33;34897;-87
2023/04/20 04:53:24;;;;;;;15.80;9.13;;;;;;;8.16;100.00;100334.47;5311527;33;34916;-89
2023/04/20 04:56:27;;;;;;;17.40;9.68;;;;;;;8.29;100.00;100341.22;5285363;33;33067;-89
2023/04/20 04:59:30;;;;;;;15.93;10.23;;;;;;;8.39;100.00;100344.59;5296377;33;33692;-89
2023/04/20 05:02:33;;;;;;;16.00;9.15;;;;;;;8.58;100.00;100341.63;5296372;33;33458;-89
2023/04/20 05:05:37;;;;;;;18.08;9.35;;;;;;;8.59;100.00;100340.62;5309228;33;34075;-89
2023/04/20 05:08:40;;;;;;;16.30;9.40;;;;;;;8.77;100.00;100342.31;5309061;33;34169;-89
2023/04/20 05:11:42;;;;;;;17.12;10.65;;;;;;;8.95;100.00;100347.50;5296082;33;32955;-89
2023/04/20 05:14:45;;;;;;;15.45;9.27;;;;;;;9.00;100.00;100353.22;5284237;33;33451;-89
2023/04/20 05:17:48;;;;;;;16.02;10.30;;;;;;;9.13;100.00;100353.56;5308559;33;33068;-89
2023/04/20 05:21:02;;;;;;;16.48;10.25;;;;;;;9.29;100.00;100356.22;5288209;33;33419;-89
2023/04/20 05:24:05;;;;;;;16.25;9.55;;;;;;;9.45;100.00;100360.75;5299313;33;33444;-89
2023/04/20 05:27:10;;;;;;;15.50;9.32;;;;;;;9.62;100.00;100360.69;5312391;33;33837;-89
2023/04/20 05:30:13;;;;;;;16.62;10.25;;;;;;;9.66;100.00;100356.66;5310542;33;34846;-90
2023/04/20 05:33:23;;;;;;;13.77;8.63;;;;;;;9.80;100.00;100366.72;5309124;33;33459;-89
2023/04/20 05:36:55;;;;;;;16.25;9.77;;;;;;;10.01;100.00;100366.13;5337171;28;33252;-86
2023/04/20 05:39:58;;;;;;;15.00;8.73;;;;;;;10.05;100.00;100370.13;5306984;33;34481;-87
2023/04/20 05:43:01;;;;;;;13.82;8.10;;;;;;;10.29;100.00;100371.88;5307830;33;33138;-87
2023/04/20 05:46:04;;;;;;;15.15;8.73;;;;;;;10.61;100.00;100370.03;5295541;33;33172;-87
2023/04/20 05:49:07;;;;;;;15.10;9.30;;;;;;;10.60;100.00;100374.56;5295909;33;33428;-88
2023/04/20 05:52:10;;;;;;;16.85;9.38;;;;;;;10.61;100.00;100370.84;5307894;33;34182;-89
2023/04/20 05:55:13;;;;;;;19.15;9.43;;;;;;;10.93;100.00;100370.81;5308890;33;34110;-89
2023/04/20 05:58:19;;;;;;;14.63;8.48;;;;;;;11.06;100.00;100374.59;5308279;33;33454;-89
2023/04/20 06:01:23;;;;;;;14.77;9.25;;;;;;;10.99;100.00;100376.31;5308262;33;33371;-89
2023/04/20 06:04:26;;;;;;;11.60;7.93;;;;;;;11.17;100.00;100377.84;5291096;33;33334;-89
2023/04/20 06:07:30;;;;;;;13.57;8.30;;;;;;;11.22;100.00;100372.75;5290746;33;34350;-87
2023/04/20 06:10:33;;;;;;;11.73;7.70;;;;;;;11.25;100.00;100375.94;5277401;33;33521;-87
2023/04/20 06:13:36;;;;;;;11.35;7.50;;;;;;;11.23;100.00;100371.72;5289721;33;33296;-87
2023/04/20 06:16:39;;;;;;;12.45;7.95;;;;;;;11.41;100.00;100388.44;5266176;33;33283;-87
2023/04/20 06:19:42;;;;;;;13.10;7.85;;;;;;;11.64;100.00;100384.81;5289089;33;33617;-86
2023/04/20 06:22:45;;;;;;;13.13;7.87;;;;;;;12.00;100.00;100385.78;5272066;33;33520;-87
2023/04/20 06:25:48;;;;;;;13.45;7.80;;;;;;;12.01;96.99;100379.37;5290444;33;34146;-87
2023/04/20 06:28:52;;;;;;;14.27;7.40;;;;;;;12.20;95.57;100377.97;5291333;33;33526;-87
2023/04/20 06:31:54;;;;;;;10.60;6.70;;;;;;;12.22;94.25;100385.84;5277697;33;33408;-89
2023/04/20 06:34:57;;;;;;;11.95;7.15;;;;;;;12.49;92.72;100378.94;5291024;33;34173;-87
2023/04/20 06:38:01;;;;;;;10.68;7.28;;;;;;;12.58;92.71;100385.06;5265931;33;34252;-86
2023/04/20 06:41:04;;;;;;;10.02;6.53;;;;;;;12.81;91.53;100388.44;5280349;33;33471;-89
2023/04/20 06:44:07;;;;;;;11.07;6.07;;;;;;;13.02;88.82;100386.75;5279438;33;33545;-87
2023/04/20 06:47:10;;;;;;;12.02;6.95;;;;;;;12.93;88.17;100392.28;5292000;33;34089;-87
2023/04/20 06:50:14;;;;;;;11.35;7.55;;;;;;;12.98;88.04;100386.28;5271677;33;34968;-87
2023/04/20 06:53:17;;;;;;;14.52;7.00;;;;;;;13.26;87.27;100390.94;5295335;33;33125;-86
2023/04/20 06:56:20;;;;;;;8.98;6.75;;;;;;;13.24;85.97;100383.00;5280726;33;33182;-87
2023/04/20 06:59:23;;;;;;;10.43;6.80;;;;;;;13.41;85.73;100377.34;5279434;33;33445;-87
2023/04/20 07:02:26;;;;;;;9.77;7.03;;;;;;;13.53;84.50;100389.28;5308995;33;33312;-87
2023/04/20 07:05:29;;;;;;;11.90;7.03;;;;;;;13.29;84.39;100385.97;5285682;33;34806;-87
2023/04/20 07:08:32;;;;;;;11.45;7.12;;;;;;;13.67;84.12;100382.94;5279368;33;33663;-87
2023/04/20 07:11:35;;;;;;;10.15;6.45;;;;;;;13.92;82.04;100380.56;5279351;33;33604;-87
2023/04/20 07:14:38;;;;;;;11.80;6.07;;;;;;;14.18;81.63;100385.28;5279578;33;33918;-87
2023/04/20 07:17:41;;;;;;;10.40;6.40;;;;;;;14.31;80.04;100378.28;5279849;33;34494;-87
2023/04/20 07:20:44;;;;;;;11.88;7.07;;;;;;;14.40;78.89;100383.31;5296409;33;33064;-87
2023/04/20 07:23:47;;;;;;;10.15;6.62;;;;;;;14.41;74.42;100386.84;5282518;33;33672;-91
2023/04/20 07:26:50;;;;;;;9.82;6.37;;;;;;;14.62;77.04;100386.75;5272778;33;34922;-91
2023/04/20 07:29:53;;;;;;;8.85;5.80;;;;;;;14.85;75.32;100391.81;5271615;33;34982;-91
2023/04/20 07:32:56;;;;;;;9.82;6.37;;;;;;;14.66;73.56;100390.72;5270440;33;33979;-92
2023/04/20 07:35:59;;;;;;;8.07;6.07;;;;;;;15.04;72.86;100390.19;5279255;33;33067;-88
2023/04/20 07:39:02;;;;;;;10.57;6.18;;;;;;;15.01;72.97;100390.59;5278927;33;33246;-88
2023/04/20 07:42:05;;;;;;;9.10;6.50;;;;;;;15.13;73.19;100398.94;5278590;33;33506;-87
2023/04/20 07:45:09;;;;;;;10.23;6.30;;;;;;;15.23;70.12;100390.41;5279055;33;33581;-87
2023/04/20 07:48:13;;;;;;;9.30;5.87;;;;;;;15.09;69.97;100392.25;5256747;33;33872;-87
2023/04/20 07:51:16;;;;;;;9.32;6.05;;;;;;;15.02;69.97;100388.72;5278782;33;33422;-88
2023/04/20 07:54:22;;;;;;;8.43;6.00;;;;;;;15.20;70.45;100380.78;5267754;33;34135;-87
2023/04/20 07:57:25;;;;;;;8.10;6.07;;;;;;;15.23;69.02;100383.09;5267292;33;33360;-87
2023/04/20 08:00:28;;;;;;;11.30;5.75;;;;;;;15.23;68.50;100384.97;5279235;33;33294;-88
2023/04/20 08:03:32;;;;;;;11.55;6.20;;;;;;;15.52;69.92;100384.53;5267861;33;33567;-88
2023/04/20 08:06:35;;;;;;;9.48;6.00;;;;;;;15.86;67.47;100383.47;5291963;33;33014;-87
2023/04/20 08:09:38;;;;;;;7.80;5.18;;;;;;;15.95;65.11;100383.25;5292149;33;33274;-88
2023/04/20 08:12:41;;;;;;;7.10;5.40;;;;;;;16.22;64.32;100384.00;5267583;33;33436;-87
2023/04/20 08:15:44;;;;;;;7.57;5.57;;;;;;;16.16;61.00;100390.28;5279095;33;33075;-88
2023/04/20 08:18:47;;;;;;;8.30;5.60;;;;;;;16.20;64.35;100377.94;5279085;33;33950;-88
2023/04/20 08:21:51;;;;;;;6.80;5.25;;;;;;;16.15;61.71;100383.22;5267539;33;33388;-88
2023/04/20 08:24:57;;;;;;;6.15;5.25;;;;;;;16.46;63.50;100377.00;5279551;33;33114;-88
2023/04/20 08:28:00;;;;;;;11.40;5.65;;;;;;;16.68;61.33;100374.81;5267485;33;33019;-88
2023/04/20 08:31:05;;;;;;;7.20;5.20;;;;;;;16.41;61.10;100379.53;5267652;33;33210;-88
2023/04/20 08:34:08;;;;;;;7.55;5.45;;;;;;;16.46;60.59;100377.81;5279351;33;33514;-88
2023/04/20 08:37:11;;;;;;;8.13;5.82;;;;;;;16.28;61.07;100375.81;5267194;33;33256;-88
2023/04/20 08:40:16;;;;;;;7.62;4.93;;;;;;;16.60;59.08;100378.59;5279087;33;33314;-88
2023/04/20 08:43:19;;;;;;;6.70;5.12;;;;;;;17.12;59.38;100378.53;5291685;33;33437;-89
2023/04/20 08:46:24;;;;;;;9.40;5.12;;;;;;;17.22;54.65;100373.41;5279728;33;33513;-88
2023/04/20 08:49:31;;;;;;;6.68;5.75;;;;;;;17.07;58.42;100376.44;5267783;33;34556;-88
2023/04/20 08:52:34;;;;;;;7.65;5.40;;;;;;;17.33;58.35;100372.69;5290020;33;32805;-88
2023/04/20 08:55:37;;;;;;;8.75;5.12;;;;;;;17.25;56.14;100367.50;5269648;33;33253;-89
2023/04/20 08:58:41;;;;;;;7.75;5.40;;;;;;;17.44;57.18;100371.12;5263948;33;32933;-89
2023/04/20 09:01:44;;;;;;;10.57;5.80;;;;;;;17.61;56.04;100374.12;5273321;33;34543;-89
2023/04/20 09:04:47;;;;;;;6.30;5.25;;;;;;;17.74;56.38;100375.87;5279610;33;33824;-89
2023/04/20 09:11:24;;;;;;;7.40;4.85;;;;;;;17.95;52.66;100369.19;5288644;33;33609;-86
2023/04/20 09:14:26;;;;;;;6.80;4.70;;;;;;;17.89;54.51;100373.66;5289441;33;33288;-87
2023/04/20 09:17:34;;;;;;;6.15;4.68;;;;;;;18.18;52.84;100369.34;5275034;33;33335;-87
2023/04/20 09:20:37;;;;;;;7.25;4.45;;;;;;;18.14;51.71;100370.88;5289831;33;33905;-86
2023/04/20 09:23:40;;;;;;;6.18;4.75;;;;;;;18.09;50.64;100366.09;5275746;33;34201;-86
2023/04/20 09:26:43;;;;;;;5.43;4.07;;;;;;;17.90;49.49;100369.84;5276150;33;33310;-87
2023/04/20 09:30:00;;;;;;;6.62;4.50;;;;;;;18.09;49.96;100362.53;5276958;33;34509;-87
2023/04/20 09:33:06;;;;;;;6.28;4.70;;;;;;;18.27;50.31;100367.97;5290621;33;33938;-87
2023/04/20 09:36:10;;;;;;;6.30;4.18;;;;;;;18.78;52.07;100365.87;5294483;33;33680;-87
2023/04/20 09:39:16;;;;;;;6.18;4.35;;;;;;;18.71;47.12;100363.19;5281510;33;33308;-87
2023/04/20 09:42:23;;;;;;;5.12;4.10;;;;;;;18.47;49.40;100364.97;5293143;33;33854;-87
2023/04/20 09:45:27;;;;;;;4.93;4.20;;;;;;;18.35;48.98;100361.38;5293845;33;33406;-87
2023/04/20 09:48:33;;;;;;;5.07;4.43;;;;;;;18.32;47.85;100359.09;5289331;33;33922;-87
2023/04/20 09:51:40;;;;;;;6.30;4.62;;;;;;;18.57;49.04;100351.66;5288406;33;33268;-86
2023/04/20 09:54:44;;;;;;;5.62;4.00;;;;;;;18.95;47.68;100355.94;5289612;33;32859;-87
2023/04/20 09:57:48;;;;;;;4.95;4.28;;;;;;;19.21;47.50;100348.38;5301113;33;33447;-87
2023/04/20 10:00:51;;;;;;;5.20;4.37;;;;;;;19.43;47.87;100345.91;5305379;33;33676;-87
2023/04/20 10:03:54;;;;;;;5.32;4.00;;;;;;;19.24;46.33;100345.19;5267177;33;33839;-87
2023/04/20 10:07:02;;;;;;;4.43;4.00;;;;;;;19.23;46.36;100344.34;5282671;33;33747;-86
2023/04/20 10:10:13;;;;;;;5.43;4.07;;;;;;;19.40;45.10;100344.50;5291630;33;33439;-87
2023/04/20 10:13:20;;;;;;;7.18;4.12;;;;;;;18.93;46.52;100343.59;5289817;33;34150;-87
2023/04/20 10:16:25;;;;;;;6.87;4.20;;;;;;;18.90;47.55;100335.87;5276986;33;34139;-87
2023/04/20 10:19:38;;;;;;;7.20;4.47;;;;;;;19.12;47.08;100334.25;5290340;33;34033;-87
2023/04/20 10:22:41;;;;;;;6.50;4.12;;;;;;;19.69;47.50;100331.81;5291643;33;33150;-87
2023/04/20 10:25:56;;;;;;;5.95;3.85;;;;;;;20.29;44.58;100327.84;5292677;33;33269;-87
2023/04/20 10:28:59;;;;;;;4.70;3.95;;;;;;;20.59;42.24;100321.34;5291834;33;33007;-87
2023/04/20 10:32:02;;;;;;;8.57;4.40;;;;;;;20.24;42.13;100332.37;5267568;33;33536;-87
2023/04/20 10:35:10;;;;;;;4.32;3.78;;;;;;;20.47;41.68;100335.03;5268272;33;34967;-90
2023/04/20 10:38:29;;;;;;;6.40;3.83;;;;;;;19.67;44.14;100330.38;5291352;33;33017;-87
2023/04/20 10:41:34;;;;;;;7.62;4.25;;;;;;;19.10;44.78;100324.63;5266940;33;33450;-88
2023/04/20 10:44:47;;;;;;;5.05;4.07;;;;;;;19.87;46.69;100324.53;5278268;33;33485;-88
2023/04/20 10:47:50;;;;;;;5.05;4.10;;;;;;;20.46;42.83;100319.72;5286666;33;34424;-87
2023/04/20 10:50:53;;;;;;;4.78;3.85;;;;;;;20.04;42.00;100314.53;5276077;33;107823;-87
2023/04/20 10:54:03;;;;;;;5.25;3.60;;;;;;;19.66;43.12;100315.06;5261499;33;33178;-88
2023/04/20 10:57:06;;;;;;;7.45;4.00;;;;;;;19.19;44.05;100310.41;5278816;33;33551;-88
2023/04/20 11:00:20;;;;;;;5.72;3.83;;;;;;;18.99;44.99;100308.03;5301795;33;33319;-87
2023/04/20 11:03:23;;;;;;;5.43;3.65;;;;;;;18.73;45.41;100314.72;5287498;33;32286;-87
2023/04/20 11:06:27;;;;;;;4.05;3.58;;;;;;;18.58;45.04;100309.66;5267337;33;34727;-88
2023/04/20 11:09:32;;;;;;;6.85;4.25;;;;;;;18.61;47.11;100305.66;5266029;33;33254;-88
2023/04/20 11:12:38;;;;;;;5.68;3.65;;;;;;;18.23;46.01;100301.37;5261880;33;33993;-87
2023/04/20 11:15:41;;;;;;;4.30;3.90;;;;;;;19.42;43.56;100292.38;5260150;33;33250;-88
2023/04/20 11:18:52;;;;;;;6.85;4.15;;;;;;;21.00;40.44;100286.47;5260168;33;34563;-87
2023/04/20 11:21:55;;;;;;;3.78;3.15;;;;;;;21.93;38.00;100284.81;5266386;33;34125;-87
2023/04/20 11:25:06;;;;;;;3.75;3.35;;;;;;;23.21;35.49;100274.34;5270278;33;33076;-87
2023/04/20 11:28:09;;;;;;;3.85;3.45;;;;;;;23.11;35.20;100280.59;5268818;33;34318;-86
2023/04/20 11:31:17;;;;;;;4.20;3.80;;;;;;;21.56;36.91;100278.31;5273190;33;33295;-86
2023/04/20 11:34:21;;;;;;;5.15;3.42;;;;;;;21.41;39.06;100271.56;5285860;33;32990;-87
2023/04/20 11:37:50;;;;;;;4.82;3.33;;;;;;;21.03;40.89;100275.88;5285472;33;34778;-87
2023/04/20 11:40:53;;;;;;;4.28;3.22;;;;;;;22.12;35.80;100277.13;5275747;33;33247;-91
2023/04/20 11:43:56;;;;;;;5.03;3.92;;;;;;;22.62;36.39;100273.28;5279983;33;34449;-91
2023/04/20 11:46:59;;;;;;;4.20;3.40;;;;;;;23.30;34.29;100275.50;5272389;33;33424;-91
2023/04/20 11:50:04;;;;;;;3.75;3.30;;;;;;;22.67;35.21;100272.50;5265083;33;32952;-87
2023/04/20 11:53:08;;;;;;;4.95;3.00;;;;;;;21.23;36.05;100280.81;5273490;33;32997;-87
2023/04/20 11:56:11;;;;;;;3.78;3.08;;;;;;;20.88;36.92;100272.06;5264102;33;34189;-87
2023/04/20 11:59:15;;;;;;;4.22;3.50;;;;;;;20.82;39.16;100279.34;5265557;33;34298;-87
2023/04/20 12:02:19;;;;;;;3.37;3.08;;;;;;;22.41;37.34;100277.75;5275644;33;33890;-87
2023/04/20 12:05:22;;;;;;;3.22;2.92;;;;;;;26.18;29.48;100268.06;5279028;33;33341;-87
2023/04/20 12:08:25;;;;;;;3.72;3.17;;;;;;;27.76;25.71;100260.38;5291018;33;33827;-88
2023/04/20 12:11:28;;;;;;;3.10;2.80;;;;;;;29.80;24.61;100259.03;5277823;33;34092;-87
2023/04/20 12:14:34;;;;;;;4.22;2.55;;;;;;;30.11;24.03;100254.81;5291987;33;34362;-87
2023/04/20 12:17:40;;;;;;;5.82;2.50;;;;;;;32.63;22.19;100253.31;5291709;33;33737;-87
2023/04/20 12:20:44;;;;;;;4.05;2.65;;;;;;;33.87;20.03;100243.09;5279214;33;33402;-88
2023/04/20 12:23:49;;;;;;;3.97;2.60;;;;;;;32.28;20.19;100242.12;5291134;33;33389;-88
2023/04/20 12:26:53;;;;;;;3.30;2.47;;;;;;;32.54;20.93;100247.75;5279758;33;33434;-88
2023/04/20 12:29:56;;;;;;;3.10;2.58;;;;;;;33.05;20.12;100239.66;5289361;33;33325;-88
2023/04/20 12:32:59;;;;;;;2.50;2.30;;;;;;;32.66;21.58;100236.75;5272476;33;32977;-88
2023/04/20 12:36:02;;;;;;;3.50;2.40;;;;;;;33.55;19.07;100241.78;5286783;33;34746;-88
2023/04/20 12:39:05;;;;;;;3.00;2.00;;;;;;;33.41;19.50;100236.41;5277822;33;33241;-88
2023/04/20 12:42:09;;;;;;;2.25;2.03;;;;;;;33.27;17.66;100233.03;5265370;33;33072;-88
2023/04/20 12:45:11;;;;;;;2.03;1.83;;;;;;;33.47;18.81;100234.25;5266860;33;33138;-88
2023/04/20 12:48:15;;;;;;;2.83;2.40;;;;;;;33.72;17.49;100224.94;5284072;33;34400;-88
2023/04/20 12:51:17;;;;;;;2.58;2.15;;;;;;;35.82;16.95;100239.38;5294258;33;34380;-88
2023/04/20 12:54:20;;;;;;;3.72;2.12;;;;;;;35.81;16.33;100228.56;5286003;33;34355;-89
2023/04/20 12:57:23;;;;;;;4.10;2.30;;;;;;;35.48;16.37;100226.66;5274914;33;34792;-86
2023/04/20 13:00:26;;;;;;;2.70;2.08;;;;;;;36.01;16.45;100219.19;5277649;33;32928;-86
2023/04/20 13:03:29;;;;;;;3.10;2.25;;;;;;;34.52;17.47;100224.88;5276994;33;33718;-86
2023/04/20 13:06:32;;;;;;;4.35;3.05;;;;;;;30.85;20.48;100221.13;5288355;33;33939;-87
2023/04/20 13:09:35;;;;;;;2.65;2.28;;;;;;;29.93;22.46;100217.72;5277248;33;33506;-86
2023/04/20 13:12:39;;;;;;;4.18;2.35;;;;;;;30.81;20.71;100214.56;5266152;33;34156;-86
2023/04/20 13:15:42;;;;;;;2.60;2.40;;;;;;;34.40;18.74;100210.84;5282789;33;33368;-87
2023/04/20 13:18:45;;;;;;;2.75;2.28;;;;;;;36.54;17.04;100205.97;5271217;33;33285;-86
2023/04/20 13:21:47;;;;;;;3.40;2.00;;;;;;;38.06;15.15;100189.78;5278767;33;33549;-87
2023/04/20 13:24:50;;;;;;;3.10;2.45;;;;;;;35.44;16.54;100204.13;5282187;33;33763;-86
2023/04/20 13:27:54;;;;;;;2.97;2.60;;;;;;;31.14;20.12;100212.28;5275585;33;33743;-85
2023/04/20 13:30:57;;;;;;;3.37;2.50;;;;;;;30.41;21.07;100209.66;5298938;33;33339;-85
2023/04/20 13:34:00;;;;;;;3.80;2.60;;;;;;;30.78;21.31;100201.28;5272557;33;33407;-86
2023/04/20 13:37:03;;;;;;;3.15;2.53;;;;;;;29.35;21.41;100200.56;5280994;33;33413;-85
2023/04/20 13:40:07;;;;;;;2.40;2.20;;;;;;;30.03;21.16;100204.41;5293109;33;33567;-86
2023/04/20 13:43:12;;;;;;;4.37;2.20;;;;;;;28.89;22.91;100198.62;5293870;33;33397;-85
2023/04/20 13:46:14;;;;;;;2.85;2.50;;;;;;;27.29;24.51;100195.66;5291080;33;33475;-89
2023/04/20 13:49:21;;;;;;;3.05;2.72;;;;;;;26.17;26.61;100202.09;5265326;33;33501;-85
2023/04/20 13:52:24;;;;;;;2.65;2.35;;;;;;;25.71;26.73;100200.41;5277151;33;33419;-88
2023/04/20 13:55:27;;;;;;;4.82;2.33;;;;;;;25.29;26.07;100200.84;5276322;33;34316;-86
2023/04/20 13:58:30;;;;;;;2.60;2.20;;;;;;;26.94;26.50;100191.31;5276286;33;34097;-86
2023/04/20 14:01:33;;;;;;;2.95;2.65;;;;;;;29.15;22.71;100190.69;5276600;33;33094;-88
2023/04/20 14:04:36;;;;;;;2.30;2.10;;;;;;;32.93;19.30;100190.09;5277062;33;33356;-86
2023/04/20 14:07:39;;;;;;;3.08;2.22;;;;;;;33.83;16.96;100177.91;5289754;33;33841;-85
2023/04/20 14:10:42;;;;;;;5.45;2.22;;;;;;;33.84;17.67;100173.94;5276395;33;33442;-85
2023/04/20 14:13:45;;;;;;;3.65;2.17;;;;;;;33.28;18.77;100176.88;5263835;33;33147;-86
2023/04/20 14:16:49;;;;;;;2.60;2.12;;;;;;;32.40;18.79;100164.28;5265073;33;33313;-86
2023/04/20 14:19:52;;;;;;;3.62;2.22;;;;;;;31.81;19.33;100172.28;5290495;33;34372;-87
2023/04/20 14:22:56;;;;;;;3.55;2.17;;;;;;;31.66;19.36;100161.59;5267280;33;33287;-85
2023/04/20 14:25:59;;;;;;;3.12;2.40;;;;;;;31.80;19.73;100160.31;5295360;33;32541;-87
2023/04/20 14:29:04;;;;;;;2.25;2.00;;;;;;;31.36;19.59;100155.81;5283978;33;34941;-88
2023/04/20 14:32:07;;;;;;;3.50;2.33;;;;;;;30.51;21.88;100164.16;5294782;33;34128;-88
2023/04/20 14:35:10;;;;;;;4.47;2.30;;;;;;;29.24;21.75;100153.94;5290083;33;33573;-87
2023/04/20 14:38:13;;;;;;;4.00;2.20;;;;;;;29.04;22.46;100163.47;5270117;33;34422;-87
2023/04/20 14:41:16;;;;;;;2.55;2.35;;;;;;;28.79;22.32;100164.75;5280251;33;33193;-87
2023/04/20 14:44:19;;;;;;;3.28;2.25;;;;;;;29.55;22.10;100154.12;5281245;33;33063;-87
2023/04/20 14:47:24;;;;;;;2.75;2.05;;;;;;;30.34;21.37;100155.72;5285286;33;33353;-87
2023/04/20 14:50:27;;;;;;;2.78;2.33;;;;;;;28.95;21.99;100155.00;5283075;33;34872;-87
2023/04/20 14:53:30;;;;;;;2.80;2.12;;;;;;;28.37;22.36;100156.25;5281488;33;34196;-87
2023/04/20 14:56:34;;;;;;;2.67;2.30;;;;;;;27.96;23.15;100147.78;5295261;33;32962;-87
2023/04/20 14:59:40;;;;;;;2.00;1.87;;;;;;;28.75;23.78;100152.63;5283113;33;34416;-86
2023/04/20 15:02:43;;;;;;;3.08;2.30;;;;;;;27.10;24.22;100145.81;5282052;33;34332;-87
2023/04/20 15:05:46;;;;;;;3.40;2.42;;;;;;;25.27;26.67;100147.94;5271848;33;34271;-86
2023/04/20 15:08:52;;;;;;;2.33;2.12;;;;;;;23.74;28.24;100155.09;5287822;33;33453;-87
2023/04/20 15:11:55;;;;;;;2.67;2.42;;;;;;;22.54;29.64;100152.19;5308606;33;33686;-87
2023/04/20 15:14:58;;;;;;;3.05;2.45;;;;;;;21.78;31.63;100149.53;5281868;33;34702;-86
2023/04/20 15:18:01;;;;;;;3.45;2.33;;;;;;;21.50;32.48;100155.00;5266185;33;34151;-86
2023/04/20 15:21:04;;;;;;;4.45;2.50;;;;;;;21.23;32.95;100154.88;5285074;33;33120;-86
2023/04/20 15:24:07;;;;;;;2.97;2.67;;;;;;;21.24;33.37;100151.06;5267722;33;33277;-86
2023/04/20 15:27:10;;;;;;;10.50;2.60;;;;;;;21.28;32.68;100151.38;5282286;33;35119;-86
2023/04/20 15:30:14;;;;;;;4.28;2.58;;;;;;;21.16;34.40;100150.69;5284457;33;33147;-86
2023/04/20 15:33:19;;;;;;;5.00;2.60;;;;;;;20.99;33.61;100162.50;5273225;33;33896;-86
2023/04/20 15:36:22;;;;;;;3.92;2.37;;;;;;;21.05;33.47;100155.19;5283866;33;33454;-86
2023/04/20 15:39:26;;;;;;;3.97;2.70;;;;;;;21.24;33.02;100158.47;5267300;33;33381;-86
2023/04/20 15:42:29;;;;;;;2.90;2.40;;;;;;;21.34;34.04;100155.84;5279191;33;34499;-86
2023/04/20 15:45:31;;;;;;;2.47;2.10;;;;;;;21.21;35.30;100156.22;5279803;33;33461;-86
2023/04/20 15:48:35;;;;;;;4.53;2.40;;;;;;;20.91;33.86;100157.44;5278199;33;33132;-86
2023/04/20 15:51:37;;;;;;;2.80;2.60;;;;;;;20.85;34.22;100169.37;5278048;33;33584;-86
2023/04/20 15:54:40;;;;;;;3.55;2.75;;;;;;;20.51;34.70;100184.97;5290874;33;33816;-87
2023/04/20 15:57:43;;;;;;;2.55;2.30;;;;;;;19.42;39.93;100186.75;5266815;33;33251;-87
2023/04/20 16:00:47;;;;;;;4.78;2.67;;;;;;;19.15;42.08;100185.56;5291334;33;33126;-87
2023/04/20 16:03:50;;;;;;;2.92;2.30;;;;;;;18.53;43.27;100186.00;5290851;33;34295;-87
2023/04/20 16:06:54;;;;;;;3.72;2.25;;;;;;;18.33;44.64;100186.31;5279213;33;33332;-90
2023/04/20 16:09:57;;;;;;;2.25;2.10;;;;;;;18.20;45.85;100186.53;5279266;33;33496;-91
2023/04/20 16:12:59;;;;;;;3.03;2.40;;;;;;;18.14;48.08;100193.75;5267465;33;35123;-91
2023/04/20 16:16:02;;;;;;;3.17;2.60;;;;;;;17.92;47.23;100198.03;5266249;33;33479;-90
2023/04/20 16:19:05;;;;;;;3.80;2.70;;;;;;;18.01;47.67;100193.94;5290855;33;33512;-87
2023/04/20 16:22:08;;;;;;;4.75;2.70;;;;;;;17.95;47.84;100195.69;5277951;33;33954;-87
2023/04/20 16:25:17;;;;;;;2.92;2.62;;;;;;;17.67;49.59;100194.34;5277839;33;33411;-87
2023/04/20 16:28:21;;;;;;;4.62;2.62;;;;;;;17.63;49.74;100192.31;5278248;33;33356;-87
2023/04/20 16:31:24;;;;;;;3.28;2.90;;;;;;;17.66;50.02;100189.94;5290138;33;33125;-87
2023/04/20 16:34:29;;;;;;;3.15;2.67;;;;;;;17.62;50.07;100191.47;5291267;33;33597;-87
2023/04/20 16:37:34;;;;;;;3.67;2.62;;;;;;;17.52;50.28;100190.34;5292217;33;34049;-87
2023/04/20 16:40:37;;;;;;;3.25;2.70;;;;;;;17.43;50.33;100196.13;5278975;33;33166;-87
2023/04/20 16:43:40;;;;;;;5.10;2.78;;;;;;;17.26;51.96;100196.94;5278668;33;33563;-87
2023/04/20 16:46:43;;;;;;;5.05;2.80;;;;;;;17.17;53.04;100194.53;5277649;33;33321;-87
2023/04/20 16:49:46;;;;;;;2.90;2.50;;;;;;;17.12;53.75;100199.81;5277551;33;33336;-87
2023/04/20 16:52:49;;;;;;;2.95;2.65;;;;;;;17.05;53.27;100201.75;5278531;33;32997;-87
2023/04/20 16:55:51;;;;;;;5.18;2.50;;;;;;;16.93;53.73;100209.81;5278186;33;33516;-87
2023/04/20 16:58:55;;;;;;;5.30;2.65;;;;;;;16.86;53.91;100202.78;5277365;33;33414;-87
2023/04/20 17:01:58;;;;;;;3.50;2.60;;;;;;;16.68;54.36;100208.97;5290564;33;33977;-87
2023/04/20 17:05:01;;;;;;;3.92;2.55;;;;;;;16.64;54.50;100215.91;5277872;33;32951;-88
